Time;durP1;ratioP1;P1;durP2;ratioP2;P2;SDS_P1;SDS_P2;PMS_P1;PMS_P2;Temp;Humidity;BMP_temperature;BMP_pressure;BME280_temperature;BME280_humidity;BME280_pressure;Samples;Min_cycle;Max_cycle;Signal;HPM_P1;HPM_P2
2022/10/31 00:02:54;;;;;;;56.05;44.20;;;22.70;57.20;;;;;;4920383;55;20994;-35
2022/10/31 00:07:55;;;;;;;57.95;45.05;;;22.70;57.40;;;;;;4786504;55;21022;-43
2022/10/31 00:12:56;;;;;;;58.38;45.17;;;22.70;57.20;;;;;;4745388;59;20990;-31
2022/10/31 00:17:58;;;;;;;57.20;43.10;;;22.70;57.30;;;;;;4865393;55;21017;-36
2022/10/31 00:23:00;;;;;;;53.70;42.62;;;22.70;57.20;;;;;;5217281;55;21070;-40
2022/10/31 00:28:01;;;;;;;54.88;42.72;;;22.80;57.30;;;;;;4906654;55;21077;-47
2022/10/31 00:33:04;;;;;;;52.85;41.30;;;22.70;57.30;;;;;;4808515;55;20994;-42
2022/10/31 00:38:05;;;;;;;54.75;41.92;;;22.70;57.20;;;;;;4835137;55;21484;-43
2022/10/31 00:43:06;;;;;;;54.30;42.53;;;22.70;57.30;;;;;;4744907;59;21058;-42
2022/10/31 00:48:07;;;;;;;54.55;42.08;;;22.70;57.20;;;;;;4745358;59;21061;-48
2022/10/31 00:53:07;;;;;;;50.63;39.45;;;22.70;57.20;;;;;;4928606;55;21049;-41
2022/10/31 00:58:08;;;;;;;50.88;40.10;;;22.70;57.20;;;;;;4862562;55;21491;-41
2022/10/31 01:03:09;;;;;;;49.92;39.85;;;22.70;57.20;;;;;;5230425;55;20994;-45
2022/10/31 01:08:10;;;;;;;50.88;40.25;;;22.70;57.80;;;;;;4746000;59;21010;-47
2022/10/31 01:13:11;;;;;;;52.38;40.03;;;22.70;57.00;;;;;;4879131;55;21002;-41
2022/10/31 01:18:11;;;;;;;50.65;39.38;;;22.70;57.20;;;;;;4906211;55;21010;-44
2022/10/31 01:23:12;;;;;;;47.83;38.30;;;22.70;57.10;;;;;;4953213;55;21564;-43
2022/10/31 01:28:13;;;;;;;50.50;37.90;;;22.70;57.60;;;;;;4745615;59;21113;-43
2022/10/31 01:33:14;;;;;;;47.67;38.00;;;22.70;57.00;;;;;;4772224;55;21014;-39
2022/10/31 01:38:15;;;;;;;47.97;37.60;;;22.70;57.10;;;;;;4745095;59;21476;-41
2022/10/31 01:43:16;;;;;;;45.78;36.58;;;22.70;57.00;;;;;;5109914;55;21030;-41
2022/10/31 01:48:20;;;;;;;47.13;37.03;;;22.70;56.90;;;;;;4805607;55;21504;-37
2022/10/31 01:53:23;;;;;;;47.17;37.28;;;22.70;56.90;;;;;;5068317;55;21002;-40
2022/10/31 01:58:28;;;;;;;47.58;36.03;;;22.60;57.00;;;;;;5231299;55;21587;-33
2022/10/31 02:03:30;;;;;;;46.10;35.83;;;22.60;56.90;;;;;;4745166;59;21021;-43
2022/10/31 02:08:33;;;;;;;43.92;34.75;;;22.70;56.90;;;;;;4832908;55;21061;-34
2022/10/31 02:13:34;;;;;;;46.03;36.22;;;22.60;56.90;;;;;;4957142;55;21030;-41
2022/10/31 02:18:35;;;;;;;46.63;35.75;;;22.60;56.90;;;;;;5077614;55;20994;-42
2022/10/31 02:26:41;;;;;;;41.40;32.17;;;22.60;56.80;;;;;;4768259;55;21097;-39
2022/10/31 02:31:53;;;;;;;42.65;33.90;;;22.60;56.70;;;;;;4855774;55;21512;-46
2022/10/31 02:37:03;;;;;;;43.03;32.90;;;22.60;56.70;;;;;;4820492;55;21009;-47
2022/10/31 02:44:01;;;;;;;43.15;32.88;;;22.60;56.70;;;;;;4785595;55;20978;-42
2022/10/31 02:49:09;;;;;;;36.80;30.70;;;22.70;56.50;;;;;;4768911;55;21479;-44
2022/10/31 02:54:25;;;;;;;40.47;32.42;;;22.80;56.90;;;;;;4777829;55;21074;-40
2022/10/31 02:59:27;;;;;;;41.78;32.45;;;22.60;56.80;;;;;;4789213;55;21050;-45
2022/10/31 03:04:59;;;;;;;44.58;33.88;;;22.60;56.60;;;;;;4745199;59;21013;-40
2022/10/31 03:10:21;;;;;;;40.60;31.98;;;22.60;56.40;;;;;;5054509;55;20986;-46
2022/10/31 03:15:32;;;;;;;39.08;31.12;;;22.60;56.80;;;;;;4745232;59;21065;-48
2022/10/31 03:20:58;;;;;;;42.33;32.50;;;22.30;56.10;;;;;;4745562;55;21074;-45
2022/10/31 03:26:02;;;;;;;42.38;32.47;;;22.60;56.30;;;;;;4811972;55;21026;-41
2022/10/31 03:31:04;;;;;;;37.83;30.58;;;22.60;56.60;;;;;;4859833;55;21023;-46
2022/10/31 03:36:08;;;;;;;37.83;30.75;;;22.60;56.50;;;;;;4775422;55;21026;-43
2022/10/31 03:41:19;;;;;;;38.75;31.25;;;22.60;56.50;;;;;;4745827;55;21006;-40
2022/10/31 03:46:21;;;;;;;37.72;30.58;;;22.60;56.20;;;;;;4851462;55;21002;-38
2022/10/31 03:51:45;;;;;;;36.58;28.92;;;22.60;56.50;;;;;;4823609;55;21002;-40
2022/10/31 03:57:24;;;;;;;38.15;30.15;;;22.60;56.20;;;;;;4963067;55;21030;-42
2022/10/31 04:02:30;;;;;;;38.63;29.27;;;22.60;56.30;;;;;;4745198;59;21001;-36
2022/10/31 04:07:36;;;;;;;35.13;28.23;;;22.70;56.50;;;;;;4759801;55;20998;-41
2022/10/31 04:12:39;;;;;;;35.58;28.55;;;22.60;56.40;;;;;;5230952;55;20986;-40
2022/10/31 04:17:44;;;;;;;36.55;28.62;;;22.60;56.40;;;;;;4745664;55;20997;-41
2022/10/31 04:22:44;;;;;;;36.83;28.52;;;22.60;56.40;;;;;;4834043;55;21089;-44
2022/10/31 04:27:45;;;;;;;36.55;29.00;;;22.60;56.30;;;;;;5171058;55;21057;-45
2022/10/31 04:32:46;;;;;;;35.42;28.55;;;22.60;56.30;;;;;;4859915;55;21611;-34
2022/10/31 04:37:47;;;;;;;34.83;27.75;;;22.60;56.30;;;;;;4989719;55;21065;-32
2022/10/31 04:42:48;;;;;;;35.90;27.58;;;22.60;56.30;;;;;;4854357;55;21077;-33
2022/10/31 04:47:48;;;;;;;34.85;27.58;;;22.60;56.20;;;;;;4745333;59;21461;-42
2022/10/31 04:52:49;;;;;;;34.63;28.08;;;22.60;56.20;;;;;;5156941;55;21137;-40
2022/10/31 04:57:50;;;;;;;33.97;26.50;;;22.60;56.20;;;;;;4845783;55;21105;-43
2022/10/31 05:02:56;;;;;;;36.50;27.83;;;22.60;56.30;;;;;;4799026;55;21488;-47
2022/10/31 05:07:57;;;;;;;32.17;26.27;;;22.60;56.30;;;;;;4745603;59;21067;-45
2022/10/31 05:13:01;;;;;;;31.02;25.95;;;22.60;56.30;;;;;;4874475;55;21103;-42
2022/10/31 05:18:02;;;;;;;32.95;25.73;;;22.60;56.30;;;;;;5053587;55;20998;-41
2022/10/31 05:23:02;;;;;;;34.17;26.37;;;22.60;56.40;;;;;;5017342;55;21109;-47
2022/10/31 05:28:03;;;;;;;29.77;25.37;;;22.60;56.40;;;;;;4745688;59;21009;-48
2022/10/31 05:33:04;;;;;;;34.05;26.58;;;22.60;56.50;;;;;;4767987;55;21010;-45
2022/10/31 05:38:05;;;;;;;35.53;26.98;;;22.60;56.40;;;;;;4854643;55;20990;-45
2022/10/31 05:43:06;;;;;;;31.52;25.67;;;22.50;56.40;;;;;;4745160;59;21073;-46
2022/10/31 05:48:08;;;;;;;31.50;26.17;;;22.60;56.40;;;;;;4745025;59;21579;-41
2022/10/31 05:53:09;;;;;;;31.60;26.27;;;22.60;57.20;;;;;;5142503;55;21467;-46
2022/10/31 05:58:10;;;;;;;33.05;27.00;;;22.60;56.50;;;;;;4799351;55;21013;-42
2022/10/31 06:03:11;;;;;;;32.53;26.95;;;22.60;56.50;;;;;;4744696;59;21013;-48
2022/10/31 06:08:12;;;;;;;29.45;25.02;;;22.60;56.50;;;;;;4823623;55;21128;-38
2022/10/31 06:13:13;;;;;;;32.08;26.48;;;22.60;56.70;;;;;;4788687;55;20985;-43
2022/10/31 06:18:14;;;;;;;31.23;25.27;;;22.60;57.10;;;;;;4988951;55;21033;-45
2022/10/31 06:23:15;;;;;;;32.55;26.90;;;22.50;56.40;;;;;;4868775;55;21137;-42
2022/10/31 06:28:15;;;;;;;33.38;25.92;;;22.60;57.30;;;;;;5087102;55;21017;-45
2022/10/31 06:33:16;;;;;;;33.38;26.92;;;22.50;56.50;;;;;;4767918;55;21129;-44
2022/10/31 06:38:17;;;;;;;30.27;26.55;;;22.50;56.50;;;;;;4744906;59;20997;-42
2022/10/31 06:43:18;;;;;;;31.87;27.05;;;22.60;56.50;;;;;;4744542;59;21022;-40
2022/10/31 06:48:19;;;;;;;30.83;26.17;;;22.60;56.40;;;;;;5103658;55;21061;-48
2022/10/31 06:53:20;;;;;;;35.03;27.83;;;22.60;56.40;;;;;;4779284;55;21013;-45
2022/10/31 06:58:21;;;;;;;37.20;27.73;;;22.60;56.40;;;;;;4850382;55;21081;-45
2022/10/31 07:03:21;;;;;;;33.35;27.20;;;22.60;56.40;;;;;;4744891;59;21006;-52
2022/10/31 07:08:23;;;;;;;36.35;28.35;;;22.60;56.40;;;;;;4744884;59;21567;-49
2022/10/31 07:13:25;;;;;;;31.50;26.75;;;22.60;56.40;;;;;;4745322;59;21070;-44
2022/10/31 07:18:26;;;;;;;37.08;28.35;;;22.60;56.30;;;;;;5123265;55;21532;-34
2022/10/31 07:23:27;;;;;;;37.80;29.40;;;22.60;56.10;;;;;;4744256;59;21026;-40
2022/10/31 07:28:28;;;;;;;36.53;29.20;;;22.60;56.20;;;;;;5040410;55;21049;-45
2022/10/31 07:33:28;;;;;;;36.10;28.25;;;22.50;56.20;;;;;;4936047;55;21073;-42
2022/10/31 07:38:29;;;;;;;37.83;29.92;;;22.60;56.20;;;;;;4744876;56;21018;-35
2022/10/31 07:43:30;;;;;;;37.47;30.02;;;22.60;56.10;;;;;;4744558;55;21522;-42
2022/10/31 07:48:31;;;;;;;36.83;28.52;;;22.60;56.20;;;;;;5125685;55;21149;-48
2022/10/31 07:53:32;;;;;;;36.28;28.62;;;22.60;56.20;;;;;;4961666;55;21142;-33
2022/10/31 07:58:32;;;;;;;38.40;30.48;;;22.60;56.20;;;;;;4811361;55;21014;-38
2022/10/31 08:03:33;;;;;;;40.08;30.30;;;22.70;56.00;;;;;;4912502;55;21101;-44
2022/10/31 08:08:34;;;;;;;43.85;31.50;;;22.70;56.10;;;;;;4803969;55;21078;-47
2022/10/31 08:13:35;;;;;;;45.58;32.38;;;22.80;56.10;;;;;;4745514;59;21006;-44
2022/10/31 08:18:37;;;;;;;45.72;33.95;;;22.90;56.10;;;;;;4784671;55;21089;-46
2022/10/31 08:23:38;;;;;;;51.15;36.47;;;22.90;56.10;;;;;;4910712;55;21575;-35
2022/10/31 08:28:38;;;;;;;52.40;35.80;;;22.90;56.10;;;;;;4958694;55;21010;-45
2022/10/31 08:33:39;;;;;;;54.65;37.55;;;23.00;56.10;;;;;;4827545;55;21026;-46
2022/10/31 08:38:40;;;;;;;54.13;37.95;;;22.90;56.00;;;;;;4956179;55;21033;-48
2022/10/31 08:43:41;;;;;;;54.15;38.55;;;23.00;56.20;;;;;;4824588;55;21054;-48
2022/10/31 08:48:42;;;;;;;55.35;40.70;;;23.00;56.20;;;;;;4807620;55;21580;-40
2022/10/31 08:53:42;;;;;;;63.58;40.55;;;23.10;56.40;;;;;;4850151;55;20998;-38
2022/10/31 08:58:43;;;;;;;57.62;42.33;;;23.10;56.30;;;;;;4811852;55;21057;-31
2022/10/31 09:03:44;;;;;;;66.70;44.53;;;23.20;56.50;;;;;;4835914;55;21092;-45
2022/10/31 09:08:45;;;;;;;72.35;49.67;;;23.10;56.70;;;;;;4744895;59;21472;-41
2022/10/31 09:13:45;;;;;;;81.35;55.17;;;23.10;55.70;;;;;;4800360;55;21080;-43
2022/10/31 09:18:46;;;;;;;75.78;52.92;;;23.10;55.80;;;;;;4806008;55;21082;-39
2022/10/31 09:23:47;;;;;;;80.95;57.15;;;23.10;55.60;;;;;;4758140;55;21049;-41
2022/10/31 09:28:48;;;;;;;88.00;57.75;;;23.10;55.50;;;;;;4777675;55;21002;-40
2022/10/31 09:33:49;;;;;;;89.62;61.47;;;23.10;55.50;;;;;;4805027;55;21498;-42
2022/10/31 09:38:51;;;;;;;87.85;59.58;;;23.10;55.50;;;;;;4754139;55;21057;-35
2022/10/31 09:44:28;;;;;;;85.65;62.55;;;23.20;55.50;;;;;;4879989;55;21536;-51
2022/10/31 09:49:57;;;;;;;104.87;71.50;;;23.10;55.40;;;;;;4745108;59;20985;-44
2022/10/31 09:55:16;;;;;;;112.72;78.85;;;23.10;55.50;;;;;;4833499;55;21002;-42
2022/10/31 10:00:21;;;;;;;123.07;84.50;;;23.10;55.60;;;;;;4743809;59;21546;-41
2022/10/31 10:05:39;;;;;;;133.00;90.28;;;23.10;55.80;;;;;;4985848;55;21121;-46
2022/10/31 10:11:01;;;;;;;143.32;100.65;;;23.10;55.80;;;;;;5172887;55;21046;-44
2022/10/31 10:18:00;;;;;;;150.98;101.45;;;23.10;55.60;;;;;;4790288;55;21483;-49
2022/10/31 10:23:45;;;;;;;157.77;105.12;;;23.10;55.90;;;;;;4886597;55;21591;-45
2022/10/31 10:28:56;;;;;;;219.37;142.85;;;23.10;56.10;;;;;;4831111;55;21029;-40
2022/10/31 10:34:47;;;;;;;224.12;143.82;;;23.10;54.90;;;;;;4781036;55;21002;-46
2022/10/31 10:39:58;;;;;;;225.70;144.18;;;23.10;54.90;;;;;;4764498;55;21566;-38
2022/10/31 10:50:36;;;;;;;218.37;140.45;;;23.10;55.70;;;;;;4829656;55;21086;-37
2022/10/31 10:55:46;;;;;;;215.80;139.55;;;23.20;55.20;;;;;;4869088;55;21053;-35
2022/10/31 11:00:49;;;;;;;205.15;132.85;;;23.20;55.30;;;;;;4765921;55;21066;-43
2022/10/31 11:05:56;;;;;;;201.90;132.35;;;23.20;55.40;;;;;;4858098;55;21512;-43
2022/10/31 11:11:19;;;;;;;208.65;136.57;;;23.20;55.50;;;;;;4764874;55;21598;-44
2022/10/31 11:16:55;;;;;;;193.10;127.40;;;23.20;55.30;;;;;;4758071;55;21061;-40
2022/10/31 11:22:07;;;;;;;199.30;130.43;;;23.30;56.20;;;;;;4744660;55;21049;-38
2022/10/31 11:27:21;;;;;;;190.40;128.15;;;23.30;56.40;;;;;;4743841;59;21515;-40
2022/10/31 11:32:26;;;;;;;195.60;127.47;;;23.30;56.70;;;;;;4744923;59;21006;-42
2022/10/31 11:37:30;;;;;;;183.93;125.22;;;23.40;56.90;;;;;;4761192;55;21046;-35
2022/10/31 11:42:42;;;;;;;182.05;124.60;;;23.50;57.20;;;;;;4824608;55;21118;-44
2022/10/31 11:47:54;;;;;;;184.57;123.07;;;23.40;57.30;;;;;;4811363;55;21014;-29
2022/10/31 11:52:55;;;;;;;184.55;120.22;;;23.50;57.30;;;;;;4843211;55;21468;-28
2022/10/31 11:57:57;;;;;;;171.95;120.10;;;23.50;57.60;;;;;;4751265;55;21122;-36
2022/10/31 12:09:46;;;;;;;176.90;117.25;;;23.50;57.90;;;;;;4862581;55;21540;-31
2022/10/31 12:15:05;;;;;;;178.20;121.28;;;23.60;58.30;;;;;;4759069;55;20994;-33
2022/10/31 12:21:13;;;;;;;175.68;122.75;;;23.60;57.70;;;;;;4963322;55;21021;-32
2022/10/31 12:26:26;;;;;;;183.43;124.45;;;23.50;57.60;;;;;;4743981;59;20982;-35
2022/10/31 12:32:02;;;;;;;172.98;122.32;;;23.50;57.70;;;;;;4840015;55;20974;-26
2022/10/31 12:39:05;;;;;;;178.47;123.37;;;23.50;57.50;;;;;;4780632;55;21058;-34
2022/10/31 12:46:36;;;;;;;171.77;121.85;;;23.50;57.50;;;;;;4744908;55;21508;-49
2022/10/31 12:52:00;;;;;;;171.20;121.25;;;23.50;57.60;;;;;;4745156;59;21089;-31
2022/10/31 13:00:03;;;;;;;177.93;125.40;;;23.40;57.40;;;;;;4745369;55;21014;-43
2022/10/31 13:11:54;;;;;;;170.55;114.97;;;23.50;57.80;;;;;;4949167;55;21552;-35
2022/10/31 13:16:56;;;;;;;166.82;117.50;;;23.50;58.70;;;;;;4801629;55;21085;-40
2022/10/31 13:22:14;;;;;;;162.35;113.37;;;23.70;58.90;;;;;;4770771;55;21516;-38
2022/10/31 13:27:24;;;;;;;168.40;116.20;;;23.60;59.00;;;;;;4762910;55;21035;-42
2022/10/31 13:32:29;;;;;;;163.52;115.45;;;23.60;59.10;;;;;;4745389;59;20987;-27
2022/10/31 13:37:44;;;;;;;163.93;113.37;;;23.70;59.40;;;;;;4853041;55;21128;-31
2022/10/31 13:44:25;;;;;;;158.18;112.55;;;23.70;59.40;;;;;;4775527;55;21005;-44
2022/10/31 13:49:43;;;;;;;166.55;112.20;;;23.70;59.50;;;;;;4745069;59;21085;-33
2022/10/31 13:54:55;;;;;;;162.73;112.78;;;23.70;59.70;;;;;;4753392;55;20978;-26
2022/10/31 14:00:24;;;;;;;161.07;111.12;;;23.70;59.80;;;;;;4874335;55;21603;-47
2022/10/31 14:05:33;;;;;;;158.80;108.55;;;23.70;60.50;;;;;;4751109;55;20990;-34
2022/10/31 14:10:46;;;;;;;161.55;112.25;;;23.80;60.10;;;;;;4802231;55;21104;-43
2022/10/31 14:16:01;;;;;;;163.23;112.05;;;23.80;60.20;;;;;;4800789;55;21045;-31
2022/10/31 14:21:13;;;;;;;161.85;113.50;;;23.80;60.00;;;;;;4753365;55;21026;-41
2022/10/31 14:28:19;;;;;;;155.95;109.90;;;23.80;59.90;;;;;;4819168;55;21488;-43
2022/10/31 14:33:21;;;;;;;161.52;110.93;;;23.70;59.80;;;;;;4965519;55;21072;-41
2022/10/31 14:38:41;;;;;;;158.00;113.10;;;23.70;60.00;;;;;;4927692;55;21053;-42
2022/10/31 14:44:17;;;;;;;149.75;107.70;;;23.60;60.00;;;;;;4842924;55;21522;-40
2022/10/31 14:49:34;;;;;;;150.20;105.50;;;23.60;60.00;;;;;;4771410;55;21026;-42
2022/10/31 14:54:40;;;;;;;151.30;108.77;;;23.50;60.10;;;;;;4751745;55;20999;-34
2022/10/31 14:59:49;;;;;;;149.43;104.72;;;23.50;60.10;;;;;;4826970;55;21132;-42
2022/10/31 15:04:52;;;;;;;146.55;106.75;;;23.50;60.20;;;;;;4811512;55;21563;-42
2022/10/31 15:10:02;;;;;;;147.98;107.15;;;23.50;60.20;;;;;;4789408;55;21563;-38
2022/10/31 15:15:23;;;;;;;142.87;104.78;;;23.50;60.20;;;;;;4831500;55;21006;-43
2022/10/31 15:20:42;;;;;;;145.85;103.47;;;23.40;60.00;;;;;;4745000;55;21018;-48
2022/10/31 15:25:44;;;;;;;147.37;105.22;;;23.40;60.20;;;;;;4949091;55;21070;-39
2022/10/31 15:31:00;;;;;;;138.32;101.30;;;23.40;60.20;;;;;;4760825;55;20982;-42
2022/10/31 15:36:02;;;;;;;142.20;101.78;;;23.40;60.30;;;;;;4745399;59;21004;-35
2022/10/31 15:41:19;;;;;;;140.10;102.43;;;23.30;60.20;;;;;;4745420;56;20974;-45
2022/10/31 15:46:21;;;;;;;138.93;102.40;;;23.40;60.20;;;;;;4829622;55;21492;-40
2022/10/31 15:51:32;;;;;;;140.27;99.35;;;23.30;60.20;;;;;;4745058;55;21002;-47
2022/10/31 15:56:33;;;;;;;139.45;99.37;;;23.30;60.30;;;;;;4995882;55;21038;-44
2022/10/31 16:01:34;;;;;;;137.80;100.32;;;23.30;60.30;;;;;;4848502;55;21002;-42
2022/10/31 16:06:35;;;;;;;132.98;97.07;;;23.30;60.30;;;;;;4744304;55;21425;-40
2022/10/31 16:11:38;;;;;;;137.20;98.35;;;23.30;60.30;;;;;;4745315;59;21468;-38
2022/10/31 16:16:46;;;;;;;131.55;96.10;;;23.20;60.20;;;;;;4828882;55;21079;-44
2022/10/31 16:21:51;;;;;;;125.55;95.07;;;23.30;60.30;;;;;;4777904;55;21105;-43
2022/10/31 16:26:58;;;;;;;131.50;96.37;;;23.20;60.20;;;;;;4744491;59;21086;-45
2022/10/31 16:31:59;;;;;;;128.32;96.40;;;23.20;60.10;;;;;;4745175;59;21065;-41
2022/10/31 16:37:02;;;;;;;126.57;93.55;;;23.30;60.20;;;;;;4751536;55;21464;-43
2022/10/31 16:42:03;;;;;;;128.15;93.75;;;23.30;60.20;;;;;;4890707;55;21006;-36
2022/10/31 16:47:14;;;;;;;129.20;92.65;;;23.20;60.20;;;;;;4916672;55;21041;-44
2022/10/31 16:52:16;;;;;;;122.72;89.18;;;23.20;60.20;;;;;;4745288;59;21030;-37
2022/10/31 16:57:20;;;;;;;124.05;90.32;;;23.20;60.20;;;;;;4928612;55;21065;-38
2022/10/31 17:02:21;;;;;;;128.62;90.28;;;23.20;59.90;;;;;;4755879;55;20993;-41
2022/10/31 17:07:22;;;;;;;119.00;87.88;;;23.20;59.90;;;;;;4789770;55;21002;-36
2022/10/31 17:12:26;;;;;;;123.72;87.90;;;23.20;59.90;;;;;;4772706;55;21026;-46
2022/10/31 17:17:27;;;;;;;118.93;85.50;;;23.20;59.90;;;;;;4782530;55;21014;-31
2022/10/31 17:22:28;;;;;;;126.03;89.10;;;23.20;59.80;;;;;;4744607;59;21507;-36
2022/10/31 17:27:29;;;;;;;119.90;86.93;;;23.20;59.90;;;;;;4824303;55;21448;-42
2022/10/31 17:32:30;;;;;;;113.88;85.05;;;23.20;59.90;;;;;;4954222;55;21136;-39
2022/10/31 17:37:30;;;;;;;115.75;85.10;;;23.20;59.80;;;;;;4819809;55;21017;-42
2022/10/31 17:42:31;;;;;;;119.60;87.28;;;23.20;59.80;;;;;;4860997;55;21083;-40
2022/10/31 17:47:33;;;;;;;118.95;86.78;;;23.20;59.80;;;;;;4745613;57;21483;-44
2022/10/31 17:52:34;;;;;;;120.95;85.40;;;23.20;59.80;;;;;;4745139;59;21210;-43
2022/10/31 17:57:36;;;;;;;112.40;82.65;;;23.10;59.70;;;;;;4785360;55;20994;-38
2022/10/31 18:02:37;;;;;;;119.60;84.35;;;23.20;59.80;;;;;;4745212;55;21022;-48
2022/10/31 18:07:38;;;;;;;112.35;82.05;;;23.10;59.70;;;;;;4872185;55;21006;-49
2022/10/31 18:12:39;;;;;;;113.43;81.97;;;23.10;59.60;;;;;;4957956;55;21053;-40
2022/10/31 18:17:40;;;;;;;114.55;82.68;;;23.10;59.60;;;;;;4778459;55;21529;-47
2022/10/31 18:22:40;;;;;;;116.28;82.28;;;23.10;59.60;;;;;;4744140;59;21010;-48
2022/10/31 18:27:41;;;;;;;110.60;81.93;;;23.10;59.60;;;;;;4788341;55;21013;-39
2022/10/31 18:32:42;;;;;;;108.78;79.55;;;23.10;59.50;;;;;;4774081;55;21002;-39
2022/10/31 18:37:43;;;;;;;110.35;82.78;;;23.10;59.50;;;;;;4772971;55;21539;-44
2022/10/31 18:42:44;;;;;;;109.87;80.32;;;23.10;59.50;;;;;;4745099;59;21057;-39
2022/10/31 18:47:45;;;;;;;114.65;82.93;;;23.10;59.50;;;;;;4777331;55;21065;-38
2022/10/31 18:52:45;;;;;;;109.70;81.65;;;23.10;59.50;;;;;;4745616;55;20991;-41
2022/10/31 18:57:46;;;;;;;107.63;79.97;;;23.10;59.50;;;;;;4750954;55;21002;-44
2022/10/31 19:02:47;;;;;;;106.93;78.37;;;23.10;59.40;;;;;;4745023;55;21025;-43
2022/10/31 19:07:48;;;;;;;110.90;81.47;;;23.00;59.90;;;;;;4744808;56;21009;-44
2022/10/31 19:12:49;;;;;;;110.03;82.22;;;23.10;59.40;;;;;;4745050;55;21453;-43
2022/10/31 19:17:49;;;;;;;115.15;81.78;;;23.10;59.40;;;;;;4956746;55;21033;-38
2022/10/31 19:22:50;;;;;;;110.28;81.28;;;22.70;59.10;;;;;;4846413;55;21085;-41
2022/10/31 19:27:51;;;;;;;108.93;77.43;;;23.00;59.30;;;;;;5020529;55;21070;-40
2022/10/31 19:32:55;;;;;;;112.00;80.50;;;23.10;59.20;;;;;;4745419;57;21519;-48
2022/10/31 19:37:56;;;;;;;112.65;82.20;;;23.00;59.30;;;;;;4833992;55;20990;-39
2022/10/31 19:42:57;;;;;;;107.57;79.43;;;23.00;59.20;;;;;;4766324;55;21010;-43
2022/10/31 19:47:58;;;;;;;106.12;78.00;;;23.00;59.10;;;;;;4959186;55;21065;-38
2022/10/31 19:53:00;;;;;;;108.57;78.18;;;23.00;59.10;;;;;;4776544;55;21002;-42
2022/10/31 19:58:01;;;;;;;111.32;79.75;;;23.00;59.10;;;;;;4908536;55;21436;-49
2022/10/31 20:03:02;;;;;;;107.43;79.28;;;23.00;59.00;;;;;;4861230;55;21061;-43
2022/10/31 20:08:03;;;;;;;107.65;79.85;;;23.00;59.00;;;;;;4806486;55;21045;-33
2022/10/31 20:13:04;;;;;;;105.55;77.93;;;23.00;59.00;;;;;;4942899;55;21547;-40
2022/10/31 20:18:05;;;;;;;107.12;78.32;;;23.00;59.00;;;;;;4745738;59;21118;-41
2022/10/31 20:23:06;;;;;;;116.85;81.87;;;23.00;59.00;;;;;;4801054;55;21561;-33
2022/10/31 20:28:06;;;;;;;113.47;79.95;;;23.00;58.90;;;;;;5010863;55;21088;-41
2022/10/31 20:33:07;;;;;;;108.28;79.43;;;23.00;58.90;;;;;;4782844;55;21009;-41
2022/10/31 20:38:08;;;;;;;109.93;80.18;;;23.00;58.80;;;;;;4795947;55;21074;-41
2022/10/31 20:43:11;;;;;;;109.22;80.38;;;23.00;58.80;;;;;;4969460;55;21025;-38
2022/10/31 20:48:12;;;;;;;107.90;79.25;;;23.00;58.80;;;;;;4964406;55;21511;-46
2022/10/31 20:53:13;;;;;;;107.45;79.37;;;23.00;58.80;;;;;;4784902;55;21448;-43
2022/10/31 20:58:14;;;;;;;106.55;77.47;;;23.00;58.80;;;;;;4820778;55;21022;-40
2022/10/31 21:03:14;;;;;;;107.97;78.85;;;23.00;58.70;;;;;;4817552;55;21025;-44
2022/10/31 21:08:15;;;;;;;102.25;77.12;;;23.00;58.60;;;;;;4745630;59;21499;-44
2022/10/31 21:13:17;;;;;;;110.80;80.70;;;23.00;58.60;;;;;;4848043;55;21057;-46
2022/10/31 21:18:18;;;;;;;104.25;76.93;;;23.00;58.50;;;;;;4953817;55;21017;-40
2022/10/31 21:23:19;;;;;;;105.90;78.12;;;23.00;58.50;;;;;;4843829;55;21508;-41
2022/10/31 21:28:19;;;;;;;106.30;79.30;;;23.00;58.40;;;;;;4745162;59;21097;-40
2022/10/31 21:33:20;;;;;;;99.62;74.85;;;23.00;58.40;;;;;;4981530;55;21102;-32
2022/10/31 21:38:21;;;;;;;102.05;75.15;;;23.00;58.60;;;;;;4954162;55;21108;-32
2022/10/31 21:43:22;;;;;;;102.60;74.18;;;23.00;58.40;;;;;;4887653;55;21121;-33
2022/10/31 21:48:27;;;;;;;102.18;75.82;;;23.00;58.20;;;;;;4940910;55;21081;-35
2022/10/31 21:58:47;;;;;;;100.82;74.80;;;23.00;58.00;;;;;;4919803;55;21037;-41
2022/10/31 22:03:48;;;;;;;101.20;73.45;;;22.90;58.00;;;;;;4751239;55;21021;-45
2022/10/31 22:08:49;;;;;;;97.07;72.37;;;22.90;58.00;;;;;;4745657;59;21483;-41
2022/10/31 22:13:50;;;;;;;98.40;72.80;;;23.00;58.00;;;;;;4745152;59;21007;-40
2022/10/31 22:18:55;;;;;;;101.60;74.62;;;22.90;57.90;;;;;;4792403;55;21081;-38
2022/10/31 22:23:58;;;;;;;101.43;74.07;;;23.00;57.90;;;;;;4895877;55;21053;-32
2022/10/31 22:29:02;;;;;;;96.37;69.68;;;23.00;57.60;;;;;;4903315;55;21006;-35
2022/10/31 22:34:03;;;;;;;101.78;73.10;;;22.90;57.70;;;;;;4805864;55;21047;-38
2022/10/31 22:39:04;;;;;;;99.03;72.40;;;22.90;57.80;;;;;;4885541;55;21005;-36
2022/10/31 22:44:05;;;;;;;97.10;68.60;;;22.90;57.80;;;;;;4745057;59;21006;-39
2022/10/31 22:49:12;;;;;;;94.20;69.97;;;22.90;57.70;;;;;;4841053;55;21078;-37
2022/10/31 22:54:15;;;;;;;98.10;71.25;;;22.90;57.60;;;;;;4785117;55;21057;-38
2022/10/31 22:59:16;;;;;;;92.88;69.93;;;22.90;57.70;;;;;;4745347;59;20990;-46
2022/10/31 23:04:17;;;;;;;94.70;68.93;;;22.80;57.50;;;;;;4920895;55;21014;-45
2022/10/31 23:09:18;;;;;;;93.53;70.82;;;22.90;57.60;;;;;;4813617;55;21078;-34
2022/10/31 23:14:19;;;;;;;93.60;66.80;;;22.90;57.50;;;;;;4745072;59;21010;-45
2022/10/31 23:19:28;;;;;;;95.32;70.05;;;22.90;57.50;;;;;;5003894;55;21105;-34
2022/10/31 23:24:37;;;;;;;91.12;68.30;;;22.90;57.50;;;;;;4956808;55;21014;-37
2022/10/31 23:29:50;;;;;;;93.32;68.50;;;22.90;57.20;;;;;;4749828;55;20990;-32
2022/10/31 23:34:55;;;;;;;90.07;67.28;;;22.90;57.30;;;;;;4844022;55;21088;-38
2022/10/31 23:39:56;;;;;;;93.72;66.97;;;22.90;57.30;;;;;;4745795;55;21033;-32
2022/10/31 23:44:57;;;;;;;88.80;66.45;;;22.90;57.40;;;;;;5230903;55;21065;-39
2022/10/31 23:49:58;;;;;;;86.07;64.55;;;22.90;57.40;;;;;;4745294;59;21009;-38
2022/10/31 23:54:59;;;;;;;87.28;64.57;;;22.90;57.30;;;;;;4779109;55;21018;-46
